createdAt,value
2022-08-22T00:01:38.098Z,100424.84
2022-08-22T00:02:52.479Z,100231.03
2022-08-22T00:03:01.250Z,100321.59
2022-08-22T00:04:44.322Z,100435.31
2022-08-22T00:07:49.752Z,100444.19
2022-08-22T00:10:55.103Z,100439.59
2022-08-22T00:14:01.930Z,100444.00
2022-08-22T00:17:09.607Z,100448.13
2022-08-22T00:20:15.201Z,100453.22
2022-08-22T00:23:20.613Z,100459.34
2022-08-22T00:26:26.187Z,100457.00
2022-08-22T00:29:31.736Z,100463.94
2022-08-22T00:32:38.310Z,100458.88
2022-08-22T00:35:45.284Z,100462.56
2022-08-22T00:38:52.177Z,100468.44
2022-08-22T00:41:57.715Z,100474.91
2022-08-22T00:45:03.391Z,100478.06
2022-08-22T00:48:09.057Z,100487.22
2022-08-22T00:51:15.811Z,100491.47
2022-08-22T00:54:21.391Z,100498.41
2022-08-22T00:57:27.066Z,100492.19
2022-08-22T01:00:36.448Z,100502.63
2022-08-22T01:03:42.003Z,100508.75
2022-08-22T01:06:47.381Z,100507.56
2022-08-22T01:09:53.259Z,100514.72
2022-08-22T01:12:58.532Z,100505.69
2022-08-22T01:16:04.407Z,100512.84
2022-08-22T01:19:12.189Z,100512.84
2022-08-22T01:22:17.652Z,100506.75
2022-08-22T01:25:25.918Z,100520.13
2022-08-22T01:28:31.650Z,100517.06
2022-08-22T01:31:37.392Z,100515.19
2022-08-22T01:34:42.762Z,100516.59
2022-08-22T01:37:48.776Z,100517.75
2022-08-22T01:40:54.605Z,100518.19
2022-08-22T01:44:01.170Z,100529.28
2022-08-22T01:47:06.975Z,100533.97
2022-08-22T01:50:12.819Z,100537.13
2022-08-22T01:53:18.760Z,100530.78
2022-08-22T01:56:24.075Z,100542.84
2022-08-22T01:59:34.071Z,100546.44
2022-08-22T02:02:40.074Z,100548.53
2022-08-22T02:05:46.872Z,100548.03
2022-08-22T02:08:52.520Z,100548.94
2022-08-22T02:11:58.050Z,100553.97
2022-08-22T02:15:03.977Z,100550.19
2022-08-22T02:18:10.328Z,100548.00
2022-08-22T02:21:15.726Z,100544.59
2022-08-22T02:27:44.722Z,100552.44
2022-08-22T02:30:50.546Z,100550.88
2022-08-22T02:37:20.525Z,100548.50
2022-08-22T02:40:25.971Z,100548.13
2022-08-22T02:43:38.741Z,100555.19
2022-08-22T02:46:44.068Z,100552.16
2022-08-22T02:49:49.734Z,100546.56
2022-08-22T02:52:57.303Z,100545.03
2022-08-22T02:56:03.235Z,100550.38
2022-08-22T02:59:16.689Z,100548.03
2022-08-22T03:02:22.456Z,100553.66
2022-08-22T03:05:35.145Z,100560.31
2022-08-22T03:08:47.401Z,100566.97
2022-08-22T03:11:56.848Z,100567.41
2022-08-22T03:15:06.948Z,100574.88
2022-08-22T03:18:12.426Z,100572.03
2022-08-22T03:24:42.616Z,100580.38
2022-08-22T03:27:49.999Z,100585.41
2022-08-22T03:30:56.067Z,100575.72
2022-08-22T03:37:24.999Z,100585.97
2022-08-22T03:40:32.031Z,100598.44
2022-08-22T03:43:37.635Z,100593.81
2022-08-22T03:46:42.946Z,100606.13
2022-08-22T03:49:48.951Z,100613.75
2022-08-22T03:53:18.740Z,100616.41
2022-08-22T03:56:25.027Z,100618.34
2022-08-22T03:59:31.607Z,100625.66
2022-08-22T04:02:42.988Z,100631.53
2022-08-22T04:05:53.345Z,100622.47
2022-08-22T04:08:58.762Z,100642.38
2022-08-22T04:12:05.289Z,100641.94
2022-08-22T04:15:11.031Z,100631.72
2022-08-22T04:18:16.513Z,100642.22
2022-08-22T04:21:21.913Z,100641.25
2022-08-22T04:24:27.650Z,100645.16
2022-08-22T04:27:33.161Z,100642.00
2022-08-22T04:30:41.321Z,100647.53
2022-08-22T04:33:49.885Z,100652.47
2022-08-22T04:36:55.233Z,100657.66
2022-08-22T04:40:02.266Z,100659.09
2022-08-22T04:43:08.528Z,100663.28
2022-08-22T04:46:14.959Z,100663.47
2022-08-22T04:49:20.624Z,100666.97
2022-08-22T04:52:29.563Z,100669.06
2022-08-22T04:55:35.252Z,100678.41
2022-08-22T04:58:41.065Z,100674.72
2022-08-22T05:01:46.868Z,100674.16
2022-08-22T05:04:53.441Z,100676.06
2022-08-22T05:07:59.205Z,100680.56
2022-08-22T05:11:09.719Z,100681.84
2022-08-22T05:14:15.319Z,100685.38
2022-08-22T05:17:21.246Z,100682.66
2022-08-22T05:20:27.033Z,100691.50
2022-08-22T05:23:32.855Z,100689.03
2022-08-22T05:26:38.627Z,100693.72
2022-08-22T05:29:44.394Z,100691.59
2022-08-22T05:32:50.010Z,100697.25
2022-08-22T05:35:57.916Z,100703.13
2022-08-22T05:39:03.750Z,100699.94
2022-08-22T05:42:09.284Z,100713.44
2022-08-22T05:45:15.151Z,100711.69
2022-08-22T05:48:21.323Z,100715.16
2022-08-22T05:51:26.975Z,100720.78
2022-08-22T05:54:34.651Z,100723.50
2022-08-22T05:57:40.213Z,100739.47
2022-08-22T06:00:45.950Z,100739.69
2022-08-22T06:03:51.315Z,100743.31
2022-08-22T06:06:57.053Z,100734.56
2022-08-22T06:10:02.689Z,100744.44
2022-08-22T06:13:11.474Z,100742.41
2022-08-22T06:16:17.868Z,100747.09
2022-08-22T06:19:25.069Z,100746.09
2022-08-22T06:22:31.196Z,100745.22
2022-08-22T06:25:37.828Z,100747.78
2022-08-22T06:28:54.428Z,100744.59
2022-08-22T06:32:01.349Z,100749.44
2022-08-22T06:35:06.627Z,100754.03
2022-08-22T06:38:12.701Z,100749.50
2022-08-22T06:41:18.361Z,100745.97
2022-08-22T06:44:23.658Z,100754.50
2022-08-22T06:47:29.332Z,100754.41
2022-08-22T06:50:35.022Z,100748.53
2022-08-22T06:53:45.947Z,100756.00
2022-08-22T06:56:53.504Z,100757.38
2022-08-22T06:59:59.176Z,100769.13
2022-08-22T07:03:05.157Z,100765.06
2022-08-22T07:06:11.105Z,100766.03
2022-08-22T07:09:17.293Z,100765.91
2022-08-22T07:12:22.802Z,100774.59
2022-08-22T07:15:28.334Z,100781.78
2022-08-22T07:18:33.753Z,100780.31
2022-08-22T07:21:40.015Z,100775.88
2022-08-22T07:24:45.280Z,100774.22
2022-08-22T07:27:51.083Z,100776.94
2022-08-22T07:30:56.628Z,100781.25
2022-08-22T07:34:02.328Z,100791.44
2022-08-22T07:37:07.873Z,100785.81
2022-08-22T07:40:13.890Z,100789.22
2022-08-22T07:43:19.357Z,100787.97
2022-08-22T07:46:24.997Z,100784.38
2022-08-22T07:49:30.596Z,100788.00
2022-08-22T07:52:36.931Z,100790.16
2022-08-22T07:55:49.787Z,100788.44
2022-08-22T07:58:55.497Z,100789.97
2022-08-22T08:02:00.894Z,100798.31
2022-08-22T08:05:07.060Z,100808.69
2022-08-22T08:08:15.714Z,100810.94
2022-08-22T08:11:21.715Z,100800.16
2022-08-22T08:14:27.130Z,100807.81
2022-08-22T08:17:46.672Z,100806.00
2022-08-22T08:20:52.541Z,100804.28
2022-08-22T08:23:57.911Z,100802.09
2022-08-22T08:27:21.089Z,100806.56
2022-08-22T08:30:27.097Z,100812.84
2022-08-22T08:33:32.293Z,100805.31
2022-08-22T08:36:43.861Z,100803.84
2022-08-22T08:39:50.767Z,100813.13
2022-08-22T08:43:20.482Z,100812.66
2022-08-22T08:46:27.349Z,100815.47
2022-08-22T08:49:35.267Z,100805.94
2022-08-22T08:52:50.024Z,100809.47
2022-08-22T08:59:49.275Z,100815.47
2022-08-22T09:02:55.511Z,100808.66
2022-08-22T09:06:02.564Z,100813.38
2022-08-22T09:09:09.803Z,100811.47
2022-08-22T09:12:15.596Z,100811.47
2022-08-22T09:15:20.979Z,100810.19
2022-08-22T09:18:28.716Z,100820.84
2022-08-22T09:21:34.236Z,100814.09
2022-08-22T09:24:40.161Z,100816.03
2022-08-22T09:27:50.624Z,100813.56
2022-08-22T09:30:56.190Z,100817.69
2022-08-22T09:34:05.278Z,100819.06
2022-08-22T09:37:14.092Z,100813.94
2022-08-22T09:40:24.787Z,100809.06
2022-08-22T09:43:35.057Z,100811.78
2022-08-22T09:46:43.323Z,100817.28
2022-08-22T09:49:49.032Z,100829.78
2022-08-22T09:52:54.775Z,100828.13
2022-08-22T09:56:02.087Z,100827.84
2022-08-22T10:02:49.689Z,100838.69
2022-08-22T10:05:55.801Z,100840.13
2022-08-22T10:09:01.490Z,100851.38
2022-08-22T10:12:12.515Z,100842.34
2022-08-22T10:15:19.444Z,100842.34
2022-08-22T10:18:26.089Z,100839.69
2022-08-22T10:21:33.004Z,100848.47
2022-08-22T10:24:43.644Z,100852.56
2022-08-22T10:27:49.683Z,100846.91
2022-08-22T10:31:00.970Z,100840.06
2022-08-22T10:34:07.982Z,100841.50
2022-08-22T10:37:13.250Z,100841.72
2022-08-22T10:40:18.731Z,100850.69
2022-08-22T10:43:28.853Z,100853.13
2022-08-22T10:46:38.939Z,100852.00
2022-08-22T10:49:47.282Z,100862.63
2022-08-22T10:53:26.475Z,100853.66
2022-08-22T10:56:34.969Z,100871.88
2022-08-22T10:59:40.168Z,100868.59
2022-08-22T11:02:45.681Z,100870.78
2022-08-22T11:05:51.732Z,100871.38
2022-08-22T11:08:57.391Z,100864.28
2022-08-22T11:12:03.204Z,100874.41
2022-08-22T11:15:10.222Z,100873.56
2022-08-22T11:18:16.814Z,100887.25
2022-08-22T11:21:22.144Z,100879.09
2022-08-22T11:24:34.823Z,100884.31
2022-08-22T11:27:42.569Z,100883.78
2022-08-22T11:30:47.832Z,100885.16
2022-08-22T11:33:58.146Z,100880.78
2022-08-22T11:37:04.041Z,100881.09
2022-08-22T11:40:16.937Z,100881.09
2022-08-22T11:43:23.216Z,100877.56
2022-08-22T11:46:29.420Z,100878.63
2022-08-22T11:49:35.351Z,100873.69
2022-08-22T11:52:41.379Z,100870.16
2022-08-22T11:55:47.893Z,100867.16
2022-08-22T11:58:54.120Z,100868.56
2022-08-22T12:02:00.529Z,100886.00
2022-08-22T12:05:06.409Z,100870.19
2022-08-22T12:08:12.146Z,100877.03
2022-08-22T12:11:21.476Z,100885.78
2022-08-22T12:14:27.079Z,100883.03
2022-08-22T12:17:54.883Z,100881.66
2022-08-22T12:20:58.068Z,100876.47
2022-08-22T12:24:06.325Z,100876.75
2022-08-22T12:27:29.104Z,100876.75
2022-08-22T12:30:34.428Z,100885.50
2022-08-22T12:33:42.575Z,100885.78
2022-08-22T12:36:47.846Z,100888.75
2022-08-22T12:39:53.103Z,100882.22
2022-08-22T12:43:00.843Z,100881.41
2022-08-22T12:46:07.127Z,100878.38
2022-08-22T12:49:31.510Z,100882.22
2022-08-22T12:52:37.354Z,100877.84
2022-08-22T12:55:42.825Z,100881.69
2022-08-22T12:58:51.033Z,100882.50
2022-08-22T13:01:56.949Z,100876.47
2022-08-22T13:05:02.530Z,100872.13
2022-08-22T13:08:08.233Z,100874.28
2022-08-22T13:11:23.359Z,100871.28
2022-08-22T13:14:32.225Z,100875.38
2022-08-22T13:17:37.740Z,100865.28
2022-08-22T13:20:45.500Z,100864.47
2022-08-22T13:23:51.366Z,100883.84
2022-08-22T13:26:57.069Z,100880.31
2022-08-22T13:30:02.663Z,100875.91
2022-08-22T13:33:11.547Z,100872.38
2022-08-22T13:36:17.227Z,100878.66
2022-08-22T13:39:23.701Z,100870.75
2022-08-22T13:42:32.297Z,100865.56
2022-08-22T13:45:38.273Z,100870.72
2022-08-22T13:48:43.983Z,100866.63
2022-08-22T13:51:53.520Z,100875.91
2022-08-22T13:55:02.313Z,100877.56
2022-08-22T13:58:11.491Z,100878.38
2022-08-22T14:01:17.646Z,100893.69
2022-08-22T14:04:33.433Z,100895.34
2022-08-22T14:07:42.413Z,100894.22
2022-08-22T14:10:47.863Z,100883.59
2022-08-22T14:14:00.801Z,100884.09
2022-08-22T14:17:06.037Z,100886.56
2022-08-22T14:20:11.508Z,100888.19
2022-08-22T14:23:17.392Z,100899.66
2022-08-22T14:26:23.502Z,100894.47
2022-08-22T14:29:38.686Z,100895.56
2022-08-22T14:32:48.899Z,100887.38
2022-08-22T14:35:57.584Z,100894.22
2022-08-22T14:42:27.823Z,100903.22
2022-08-22T14:45:33.377Z,100902.69
2022-08-22T14:48:40.825Z,100905.97
2022-08-22T14:51:47.571Z,100904.31
2022-08-22T14:54:59.613Z,100908.97
2022-08-22T14:58:05.862Z,100895.84
2022-08-22T15:01:12.098Z,100911.69
2022-08-22T15:04:19.584Z,100919.31
2022-08-22T15:07:25.506Z,100897.50
2022-08-22T15:10:32.904Z,100902.69
2022-08-22T15:13:39.576Z,100900.50
2022-08-22T15:16:45.141Z,100898.88
2022-08-22T15:19:52.022Z,100905.94
2022-08-22T15:22:59.228Z,100902.72
2022-08-22T15:26:05.011Z,100913.88
2022-08-22T15:29:10.801Z,100914.41
2022-08-22T15:32:16.329Z,100919.59
2022-08-22T15:35:26.852Z,100909.25
2022-08-22T15:38:32.389Z,100907.03
2022-08-22T15:41:41.865Z,100908.91
2022-08-22T15:44:47.162Z,100909.28
2022-08-22T15:47:53.188Z,100909.28
2022-08-22T15:50:59.087Z,100919.47
2022-08-22T15:54:16.276Z,100912.09
2022-08-22T15:57:30.562Z,100919.66
2022-08-22T16:00:36.145Z,100916.34
2022-08-22T16:03:49.296Z,100922.78
2022-08-22T16:06:54.706Z,100926.94
2022-08-22T16:10:00.705Z,100924.44
2022-08-22T16:13:06.173Z,100917.34
2022-08-22T16:16:12.003Z,100913.13
2022-08-22T16:19:17.688Z,100915.53
2022-08-22T16:22:23.285Z,100906.63
2022-08-22T16:25:28.744Z,100911.28
2022-08-22T16:28:57.918Z,100911.31
2022-08-22T16:32:04.276Z,100902.53
2022-08-22T16:35:13.141Z,100907.69
2022-08-22T16:38:22.869Z,100911.91
2022-08-22T16:41:31.444Z,100923.78
2022-08-22T16:44:36.703Z,100918.75
2022-08-22T16:47:42.834Z,100918.75
2022-08-22T16:50:57.685Z,100922.50
2022-08-22T16:54:03.642Z,100925.63
2022-08-22T16:57:09.365Z,100923.16
2022-08-22T17:00:22.968Z,100926.44
2022-08-22T17:03:28.452Z,100928.34
2022-08-22T17:06:34.311Z,100932.16
2022-08-22T17:09:40.352Z,100932.66
2022-08-22T17:12:45.709Z,100937.22
2022-08-22T17:15:51.163Z,100935.00
2022-08-22T17:18:57.091Z,100940.72
2022-08-22T17:22:02.799Z,100950.25
2022-08-22T17:25:09.941Z,100958.97
2022-08-22T17:28:15.291Z,100953.75
2022-08-22T17:31:20.372Z,100967.38
2022-08-22T17:34:25.860Z,100969.75
2022-08-22T17:37:31.402Z,100954.94
2022-08-22T17:40:37.115Z,100969.91
2022-08-22T17:43:49.023Z,100960.88
2022-08-22T17:46:57.251Z,100970.34
2022-08-22T17:50:03.079Z,100971.88
2022-08-22T17:53:08.121Z,100969.00
2022-08-22T17:56:14.715Z,100971.34
2022-08-22T17:59:21.153Z,100975.06
2022-08-22T18:02:26.989Z,100964.06
2022-08-22T18:05:32.695Z,100968.53
2022-08-22T18:08:38.526Z,100974.63
2022-08-22T18:11:44.836Z,100974.19
2022-08-22T18:14:53.449Z,100982.75
2022-08-22T18:17:59.108Z,100991.34
2022-08-22T18:21:04.895Z,100978.09
2022-08-22T18:24:10.446Z,100990.47
2022-08-22T18:27:34.817Z,100989.25
2022-08-22T18:30:40.952Z,100993.16
2022-08-22T18:33:46.425Z,101000.59
2022-08-22T18:36:56.358Z,100997.16
2022-08-22T18:40:02.944Z,100996.16
2022-08-22T18:43:08.749Z,100996.56
2022-08-22T18:46:14.484Z,101005.97
2022-08-22T18:49:20.655Z,101003.59
2022-08-22T18:52:26.404Z,101000.47
2022-08-22T18:55:32.093Z,101001.13
2022-08-22T18:58:38.795Z,100996.06
2022-08-22T19:02:05.620Z,101002.38
2022-08-22T19:05:11.997Z,101004.09
2022-08-22T19:08:19.688Z,101001.19
2022-08-22T19:11:26.997Z,101008.31
2022-08-22T19:14:32.784Z,101008.09
2022-08-22T19:17:39.251Z,101009.28
2022-08-22T19:21:02.284Z,101019.66
2022-08-22T19:24:07.863Z,101014.59
2022-08-22T19:27:24.943Z,101016.38
2022-08-22T19:30:36.368Z,101022.16
2022-08-22T19:33:41.901Z,101015.00
2022-08-22T19:36:48.626Z,101019.44
2022-08-22T19:39:54.552Z,101019.59
2022-08-22T19:43:01.345Z,101019.94
2022-08-22T19:46:07.109Z,101016.75
2022-08-22T19:49:13.104Z,101015.69
2022-08-22T19:52:21.714Z,101011.66
2022-08-22T19:55:27.956Z,101015.56
2022-08-22T19:58:34.020Z,101022.69
2022-08-22T20:01:39.536Z,101025.03
2022-08-22T20:04:45.196Z,101024.91
2022-08-22T20:07:51.198Z,101028.91
2022-08-22T20:10:57.511Z,101027.69
2022-08-22T20:14:06.694Z,101025.72
2022-08-22T20:17:12.284Z,101023.47
2022-08-22T20:20:18.605Z,101023.69
2022-08-22T20:23:25.170Z,101036.00
2022-08-22T20:26:31.327Z,101037.31
2022-08-22T20:29:37.288Z,101038.59
2022-08-22T20:32:42.938Z,101036.34
2022-08-22T20:35:48.718Z,101042.22
2022-08-22T20:38:55.809Z,101050.81
2022-08-22T20:42:01.428Z,101047.50
2022-08-22T20:45:12.417Z,101051.72
2022-08-22T20:48:18.360Z,101051.94
2022-08-22T20:51:25.211Z,101054.50
2022-08-22T20:54:31.024Z,101060.81
2022-08-22T20:57:36.713Z,101059.84
2022-08-22T21:00:46.721Z,101062.88
2022-08-22T21:03:52.211Z,101053.66
2022-08-22T21:06:57.725Z,101056.41
2022-08-22T21:10:35.575Z,101067.09
2022-08-22T21:13:40.818Z,101072.31
2022-08-22T21:16:46.178Z,101067.56
2022-08-22T21:19:51.770Z,101065.78
2022-08-22T21:22:59.016Z,101075.16
2022-08-22T21:26:04.772Z,101073.09
2022-08-22T21:29:13.770Z,101076.50
2022-08-22T21:32:19.500Z,101079.03
2022-08-22T21:35:24.909Z,101080.97
2022-08-22T21:38:29.849Z,101082.91
2022-08-22T21:41:37.345Z,101086.03
2022-08-22T21:44:43.150Z,101082.75
2022-08-22T21:47:52.360Z,101085.28
2022-08-22T21:50:57.541Z,101081.34
2022-08-22T21:54:18.424Z,101092.00
2022-08-22T21:57:24.650Z,101091.84
2022-08-22T22:00:30.173Z,101092.69
2022-08-22T22:03:36.091Z,101089.84
2022-08-22T22:06:42.442Z,101096.28
2022-08-22T22:09:54.523Z,101091.94
2022-08-22T22:13:00.448Z,101100.53
2022-08-22T22:16:05.953Z,101100.94
2022-08-22T22:19:11.504Z,101093.28
2022-08-22T22:22:17.415Z,101095.38
2022-08-22T22:25:39.186Z,101096.63
2022-08-22T22:28:48.056Z,101103.50
2022-08-22T22:31:53.473Z,101109.53
2022-08-22T22:34:59.131Z,101110.97
2022-08-22T22:38:04.737Z,101116.44
2022-08-22T22:41:10.287Z,101110.84
2022-08-22T22:44:16.146Z,101117.13
2022-08-22T22:47:22.107Z,101106.75
2022-08-22T22:50:28.019Z,101109.25
2022-08-22T22:53:38.297Z,101113.44
2022-08-22T22:56:47.987Z,101117.38
2022-08-22T22:59:54.397Z,101110.56
2022-08-22T23:03:03.260Z,101107.06
2022-08-22T23:06:08.685Z,101109.34
2022-08-22T23:09:14.947Z,101118.69
2022-08-22T23:12:20.594Z,101115.59
2022-08-22T23:15:28.054Z,101129.06
2022-08-22T23:18:33.813Z,101118.72
2022-08-22T23:21:39.381Z,101121.63
2022-08-22T23:24:45.206Z,101129.31
2022-08-22T23:27:52.382Z,101128.28
2022-08-22T23:30:57.916Z,101124.75
2022-08-22T23:34:18.781Z,101122.03
2022-08-22T23:37:24.472Z,101119.34
2022-08-22T23:40:30.001Z,101121.44
2022-08-22T23:43:35.514Z,101124.34
2022-08-22T23:46:41.160Z,101124.75
2022-08-22T23:49:52.787Z,101126.84
2022-08-22T23:53:01.254Z,101125.41
2022-08-22T23:56:20.126Z,101125.19
2022-08-22T23:59:29.040Z,101124.56
